Clarkesville, Georgia
Current Conditions -  °F | °C
As of 11:15 PM on Tuesday 25 Nov 2014 (Local Time) from KTOC Reporting Station
Light Rain Light Rain  
Wind Chill: 49°   Ceiling: 5000
Heat Index: 49°   Visibility: 10mi
Dew Point: 46°   Wind: 3mph
Humidity: 87%   Direction: 140°SE
Pressure: 30.04"   Gusts: NA
Location:  34.61°N, 83.52°W
Report Text: KTOC 260415Z AUTO 14003KT 10SM -RA BKN050 BKN070 OVC080 10/08 A3004 RMK AO2 T00960075
Loading
Personal Weather Stations






























Interactive Weather Map New forecast layout! Learn more

10-Day Weather Forecast

Advertisements
Track Severe Weather on mobile